sensor_id;sensor_type;location;lat;lon;timestamp;temperature;humidity
11894;DHT22;6006;49.696;8.662;2022-08-19T00:01:14;18.40;99.90
11894;DHT22;6006;49.696;8.662;2022-08-19T00:03:41;18.50;99.90
11894;DHT22;6006;49.696;8.662;2022-08-19T00:06:08;18.50;99.90
11894;DHT22;6006;49.696;8.662;2022-08-19T00:08:37;18.50;99.90
11894;DHT22;6006;49.696;8.662;2022-08-19T00:11:04;18.50;99.90
11894;DHT22;6006;49.696;8.662;2022-08-19T00:13:31;18.50;99.90
11894;DHT22;6006;49.696;8.662;2022-08-19T00:15:58;18.60;99.90
11894;DHT22;6006;49.696;8.662;2022-08-19T00:18:26;18.60;99.90
11894;DHT22;6006;49.696;8.662;2022-08-19T00:20:53;18.60;99.90
11894;DHT22;6006;49.696;8.662;2022-08-19T00:23:20;18.60;99.90
11894;DHT22;6006;49.696;8.662;2022-08-19T00:25:48;18.60;99.90
11894;DHT22;6006;49.696;8.662;2022-08-19T00:28:15;18.60;99.90
11894;DHT22;6006;49.696;8.662;2022-08-19T00:30:42;18.60;99.90
11894;DHT22;6006;49.696;8.662;2022-08-19T00:33:09;18.60;99.90
11894;DHT22;6006;49.696;8.662;2022-08-19T00:35:35;18.60;99.90
11894;DHT22;6006;49.696;8.662;2022-08-19T00:38:04;18.60;99.90
11894;DHT22;6006;49.696;8.662;2022-08-19T00:40:32;18.60;99.90
11894;DHT22;6006;49.696;8.662;2022-08-19T00:43:00;18.60;99.90
11894;DHT22;6006;49.696;8.662;2022-08-19T00:45:28;18.60;99.90
11894;DHT22;6006;49.696;8.662;2022-08-19T00:47:57;18.50;99.90
11894;DHT22;6006;49.696;8.662;2022-08-19T00:50:27;18.40;99.90
11894;DHT22;6006;49.696;8.662;2022-08-19T00:52:55;18.40;99.90
11894;DHT22;6006;49.696;8.662;2022-08-19T00:55:26;18.40;99.90
11894;DHT22;6006;49.696;8.662;2022-08-19T00:57:57;18.40;99.90
11894;DHT22;6006;49.696;8.662;2022-08-19T01:00:27;18.30;99.90
11894;DHT22;6006;49.696;8.662;2022-08-19T01:02:55;18.30;99.90
11894;DHT22;6006;49.696;8.662;2022-08-19T01:05:26;18.40;99.90
11894;DHT22;6006;49.696;8.662;2022-08-19T01:07:55;18.40;99.90
11894;DHT22;6006;49.696;8.662;2022-08-19T01:10:25;18.40;99.90
11894;DHT22;6006;49.696;8.662;2022-08-19T01:12:53;18.50;99.90
11894;DHT22;6006;49.696;8.662;2022-08-19T01:15:24;18.50;99.90
11894;DHT22;6006;49.696;8.662;2022-08-19T01:17:54;18.60;99.90
11894;DHT22;6006;49.696;8.662;2022-08-19T01:20:23;18.60;99.90
11894;DHT22;6006;49.696;8.662;2022-08-19T01:22:53;18.60;99.90
11894;DHT22;6006;49.696;8.662;2022-08-19T01:25:23;18.70;99.90
11894;DHT22;6006;49.696;8.662;2022-08-19T01:27:52;18.70;99.90
11894;DHT22;6006;49.696;8.662;2022-08-19T01:30:22;18.60;99.90
11894;DHT22;6006;49.696;8.662;2022-08-19T01:32:50;18.60;99.90
11894;DHT22;6006;49.696;8.662;2022-08-19T01:35:16;18.60;99.90
11894;DHT22;6006;49.696;8.662;2022-08-19T01:37:45;18.60;99.90
11894;DHT22;6006;49.696;8.662;2022-08-19T01:40:14;18.60;99.90
11894;DHT22;6006;49.696;8.662;2022-08-19T01:42:41;18.60;99.90
11894;DHT22;6006;49.696;8.662;2022-08-19T01:45:09;18.60;99.90
11894;DHT22;6006;49.696;8.662;2022-08-19T01:47:37;18.60;99.90
11894;DHT22;6006;49.696;8.662;2022-08-19T01:50:05;18.60;99.90
11894;DHT22;6006;49.696;8.662;2022-08-19T01:52:34;18.60;99.90
11894;DHT22;6006;49.696;8.662;2022-08-19T01:55:00;18.60;99.90
11894;DHT22;6006;49.696;8.662;2022-08-19T01:57:29;18.70;99.90
11894;DHT22;6006;49.696;8.662;2022-08-19T01:59:56;18.60;99.90
11894;DHT22;6006;49.696;8.662;2022-08-19T02:02:23;18.70;99.90
11894;DHT22;6006;49.696;8.662;2022-08-19T02:04:50;18.60;99.90
11894;DHT22;6006;49.696;8.662;2022-08-19T02:07:19;18.70;99.90
11894;DHT22;6006;49.696;8.662;2022-08-19T02:09:47;18.70;99.90
11894;DHT22;6006;49.696;8.662;2022-08-19T02:12:14;18.70;99.90
11894;DHT22;6006;49.696;8.662;2022-08-19T02:14:43;18.70;99.90
11894;DHT22;6006;49.696;8.662;2022-08-19T02:17:10;18.70;99.90
11894;DHT22;6006;49.696;8.662;2022-08-19T02:19:36;18.70;99.90
11894;DHT22;6006;49.696;8.662;2022-08-19T02:22:04;18.70;99.90
11894;DHT22;6006;49.696;8.662;2022-08-19T02:24:31;18.70;99.90
11894;DHT22;6006;49.696;8.662;2022-08-19T02:26:58;18.80;99.90
11894;DHT22;6006;49.696;8.662;2022-08-19T02:29:25;18.80;99.90
11894;DHT22;6006;49.696;8.662;2022-08-19T02:31:53;18.70;99.90
11894;DHT22;6006;49.696;8.662;2022-08-19T02:34:20;18.70;99.90
11894;DHT22;6006;49.696;8.662;2022-08-19T02:36:47;18.70;99.90
11894;DHT22;6006;49.696;8.662;2022-08-19T02:39:14;18.70;99.90
11894;DHT22;6006;49.696;8.662;2022-08-19T02:41:39;18.70;99.90
11894;DHT22;6006;49.696;8.662;2022-08-19T02:44:06;18.70;99.90
11894;DHT22;6006;49.696;8.662;2022-08-19T02:46:34;18.60;99.90
11894;DHT22;6006;49.696;8.662;2022-08-19T02:49:05;18.60;99.90
11894;DHT22;6006;49.696;8.662;2022-08-19T02:51:35;18.50;99.90
11894;DHT22;6006;49.696;8.662;2022-08-19T02:54:03;18.40;99.90
11894;DHT22;6006;49.696;8.662;2022-08-19T02:56:31;18.40;99.90
11894;DHT22;6006;49.696;8.662;2022-08-19T02:58:58;18.30;99.90
11894;DHT22;6006;49.696;8.662;2022-08-19T03:01:29;18.40;99.90
11894;DHT22;6006;49.696;8.662;2022-08-19T03:03:58;18.40;99.90
11894;DHT22;6006;49.696;8.662;2022-08-19T03:06:28;18.30;99.90
11894;DHT22;6006;49.696;8.662;2022-08-19T03:08:56;18.20;99.90
11894;DHT22;6006;49.696;8.662;2022-08-19T03:11:25;18.20;99.90
11894;DHT22;6006;49.696;8.662;2022-08-19T03:13:53;18.20;99.90
11894;DHT22;6006;49.696;8.662;2022-08-19T03:16:21;18.10;99.90
11894;DHT22;6006;49.696;8.662;2022-08-19T03:18:48;18.10;99.90
11894;DHT22;6006;49.696;8.662;2022-08-19T03:21:17;18.10;99.90
11894;DHT22;6006;49.696;8.662;2022-08-19T03:23:45;18.00;99.90
11894;DHT22;6006;49.696;8.662;2022-08-19T03:26:12;17.90;99.90
11894;DHT22;6006;49.696;8.662;2022-08-19T03:28:40;17.90;99.90
11894;DHT22;6006;49.696;8.662;2022-08-19T03:31:13;17.90;99.90
11894;DHT22;6006;49.696;8.662;2022-08-19T03:33:40;17.90;99.90
11894;DHT22;6006;49.696;8.662;2022-08-19T03:36:09;17.80;99.90
11894;DHT22;6006;49.696;8.662;2022-08-19T03:38:39;17.70;99.90
11894;DHT22;6006;49.696;8.662;2022-08-19T03:41:09;17.70;99.90
11894;DHT22;6006;49.696;8.662;2022-08-19T03:43:37;17.70;99.90
11894;DHT22;6006;49.696;8.662;2022-08-19T03:46:09;17.60;99.90
11894;DHT22;6006;49.696;8.662;2022-08-19T03:48:38;17.50;99.90
11894;DHT22;6006;49.696;8.662;2022-08-19T03:51:06;17.50;99.90
11894;DHT22;6006;49.696;8.662;2022-08-19T03:53:34;17.50;99.90
11894;DHT22;6006;49.696;8.662;2022-08-19T03:56:02;17.50;99.90
11894;DHT22;6006;49.696;8.662;2022-08-19T03:58:30;17.40;99.90
11894;DHT22;6006;49.696;8.662;2022-08-19T04:00:57;17.40;99.90
11894;DHT22;6006;49.696;8.662;2022-08-19T04:03:25;17.40;99.90
11894;DHT22;6006;49.696;8.662;2022-08-19T04:05:53;17.30;99.90
11894;DHT22;6006;49.696;8.662;2022-08-19T04:08:20;17.30;99.90
11894;DHT22;6006;49.696;8.662;2022-08-19T04:10:48;17.30;99.90
11894;DHT22;6006;49.696;8.662;2022-08-19T04:13:17;17.30;99.90
11894;DHT22;6006;49.696;8.662;2022-08-19T04:15:45;17.30;99.90
11894;DHT22;6006;49.696;8.662;2022-08-19T04:18:13;17.30;99.90
11894;DHT22;6006;49.696;8.662;2022-08-19T04:20:42;17.30;99.90
11894;DHT22;6006;49.696;8.662;2022-08-19T04:23:10;17.40;99.90
11894;DHT22;6006;49.696;8.662;2022-08-19T04:25:38;17.40;99.90
11894;DHT22;6006;49.696;8.662;2022-08-19T04:28:07;17.40;99.90
11894;DHT22;6006;49.696;8.662;2022-08-19T04:30:38;17.40;99.90
11894;DHT22;6006;49.696;8.662;2022-08-19T04:33:07;17.40;99.90
11894;DHT22;6006;49.696;8.662;2022-08-19T04:35:38;17.40;99.90
11894;DHT22;6006;49.696;8.662;2022-08-19T04:38:06;17.40;99.90
11894;DHT22;6006;49.696;8.662;2022-08-19T04:40:33;17.40;99.90
11894;DHT22;6006;49.696;8.662;2022-08-19T04:43:18;17.40;99.90
11894;DHT22;6006;49.696;8.662;2022-08-19T04:45:45;17.50;99.90
11894;DHT22;6006;49.696;8.662;2022-08-19T04:48:14;17.50;99.90
11894;DHT22;6006;49.696;8.662;2022-08-19T04:50:42;17.50;99.90
11894;DHT22;6006;49.696;8.662;2022-08-19T04:53:10;17.50;99.90
11894;DHT22;6006;49.696;8.662;2022-08-19T04:55:39;17.60;99.90
11894;DHT22;6006;49.696;8.662;2022-08-19T04:58:07;17.60;99.90
11894;DHT22;6006;49.696;8.662;2022-08-19T05:00:33;17.70;99.90
11894;DHT22;6006;49.696;8.662;2022-08-19T05:03:00;17.70;99.90
11894;DHT22;6006;49.696;8.662;2022-08-19T05:05:29;17.80;99.90
11894;DHT22;6006;49.696;8.662;2022-08-19T05:07:57;17.80;99.90
11894;DHT22;6006;49.696;8.662;2022-08-19T05:10:23;17.80;99.90
11894;DHT22;6006;49.696;8.662;2022-08-19T05:12:50;17.90;99.90
11894;DHT22;6006;49.696;8.662;2022-08-19T05:15:17;17.90;99.90
11894;DHT22;6006;49.696;8.662;2022-08-19T05:17:45;18.00;99.90
11894;DHT22;6006;49.696;8.662;2022-08-19T05:20:26;18.10;99.90
11894;DHT22;6006;49.696;8.662;2022-08-19T05:23:11;18.10;99.90
11894;DHT22;6006;49.696;8.662;2022-08-19T05:25:41;18.10;99.90
11894;DHT22;6006;49.696;8.662;2022-08-19T05:28:08;18.10;99.90
11894;DHT22;6006;49.696;8.662;2022-08-19T05:30:35;18.10;99.90
11894;DHT22;6006;49.696;8.662;2022-08-19T05:33:02;18.30;99.90
11894;DHT22;6006;49.696;8.662;2022-08-19T05:35:29;18.50;99.90
11894;DHT22;6006;49.696;8.662;2022-08-19T05:37:56;18.60;99.90
11894;DHT22;6006;49.696;8.662;2022-08-19T05:40:24;18.80;99.90
11894;DHT22;6006;49.696;8.662;2022-08-19T05:42:51;18.90;99.90
11894;DHT22;6006;49.696;8.662;2022-08-19T05:45:19;19.00;99.90
11894;DHT22;6006;49.696;8.662;2022-08-19T05:47:47;19.20;99.90
11894;DHT22;6006;49.696;8.662;2022-08-19T05:50:14;19.20;99.90
11894;DHT22;6006;49.696;8.662;2022-08-19T05:52:42;19.30;99.90
11894;DHT22;6006;49.696;8.662;2022-08-19T05:55:10;19.40;99.90
11894;DHT22;6006;49.696;8.662;2022-08-19T05:57:39;19.50;99.90
11894;DHT22;6006;49.696;8.662;2022-08-19T06:00:07;19.70;99.90
11894;DHT22;6006;49.696;8.662;2022-08-19T06:02:35;19.80;99.90
11894;DHT22;6006;49.696;8.662;2022-08-19T06:05:04;20.00;99.90
11894;DHT22;6006;49.696;8.662;2022-08-19T06:07:34;20.20;99.90
11894;DHT22;6006;49.696;8.662;2022-08-19T06:10:01;20.30;99.90
11894;DHT22;6006;49.696;8.662;2022-08-19T06:12:29;20.50;99.90
11894;DHT22;6006;49.696;8.662;2022-08-19T06:15:03;20.70;99.90
11894;DHT22;6006;49.696;8.662;2022-08-19T06:17:30;21.00;99.90
11894;DHT22;6006;49.696;8.662;2022-08-19T06:20:00;21.20;99.90
11894;DHT22;6006;49.696;8.662;2022-08-19T06:22:28;21.30;99.90
11894;DHT22;6006;49.696;8.662;2022-08-19T06:24:55;21.50;99.90
11894;DHT22;6006;49.696;8.662;2022-08-19T06:27:22;21.50;99.90
11894;DHT22;6006;49.696;8.662;2022-08-19T06:29:49;21.70;99.90
11894;DHT22;6006;49.696;8.662;2022-08-19T06:32:18;21.80;99.90
11894;DHT22;6006;49.696;8.662;2022-08-19T06:34:45;21.90;99.90
11894;DHT22;6006;49.696;8.662;2022-08-19T06:37:12;21.90;99.90
11894;DHT22;6006;49.696;8.662;2022-08-19T06:39:42;21.90;99.90
11894;DHT22;6006;49.696;8.662;2022-08-19T06:42:10;21.80;99.90
11894;DHT22;6006;49.696;8.662;2022-08-19T06:44:43;21.70;99.90
11894;DHT22;6006;49.696;8.662;2022-08-19T06:47:11;21.80;99.90
11894;DHT22;6006;49.696;8.662;2022-08-19T06:49:40;21.70;99.90
11894;DHT22;6006;49.696;8.662;2022-08-19T06:52:08;21.80;99.90
11894;DHT22;6006;49.696;8.662;2022-08-19T06:54:37;21.80;99.90
11894;DHT22;6006;49.696;8.662;2022-08-19T06:57:05;21.90;99.90
11894;DHT22;6006;49.696;8.662;2022-08-19T06:59:33;21.90;99.90
11894;DHT22;6006;49.696;8.662;2022-08-19T07:02:02;22.00;99.90
11894;DHT22;6006;49.696;8.662;2022-08-19T07:04:31;22.20;99.90
11894;DHT22;6006;49.696;8.662;2022-08-19T07:07:03;22.50;99.90
11894;DHT22;6006;49.696;8.662;2022-08-19T07:09:32;22.70;99.90
11894;DHT22;6006;49.696;8.662;2022-08-19T07:11:58;23.00;99.90
11894;DHT22;6006;49.696;8.662;2022-08-19T07:14:27;23.20;99.90
11894;DHT22;6006;49.696;8.662;2022-08-19T07:16:55;23.30;99.90
11894;DHT22;6006;49.696;8.662;2022-08-19T07:19:24;23.40;99.90
11894;DHT22;6006;49.696;8.662;2022-08-19T07:21:53;23.40;99.90
11894;DHT22;6006;49.696;8.662;2022-08-19T07:24:22;22.50;99.90
11894;DHT22;6006;49.696;8.662;2022-08-19T07:26:51;22.20;99.90
11894;DHT22;6006;49.696;8.662;2022-08-19T07:29:19;22.20;99.90
11894;DHT22;6006;49.696;8.662;2022-08-19T07:31:49;22.20;99.90
11894;DHT22;6006;49.696;8.662;2022-08-19T07:34:16;22.20;99.90
11894;DHT22;6006;49.696;8.662;2022-08-19T07:36:44;22.20;99.90
11894;DHT22;6006;49.696;8.662;2022-08-19T07:39:13;22.00;99.90
11894;DHT22;6006;49.696;8.662;2022-08-19T07:41:43;22.30;99.90
11894;DHT22;6006;49.696;8.662;2022-08-19T07:44:10;22.70;99.90
11894;DHT22;6006;49.696;8.662;2022-08-19T07:46:40;23.20;99.90
11894;DHT22;6006;49.696;8.662;2022-08-19T07:49:10;23.60;99.30
11894;DHT22;6006;49.696;8.662;2022-08-19T07:51:45;24.10;98.60
11894;DHT22;6006;49.696;8.662;2022-08-19T07:54:12;23.90;96.50
11894;DHT22;6006;49.696;8.662;2022-08-19T07:56:43;24.20;97.50
11894;DHT22;6006;49.696;8.662;2022-08-19T07:59:10;24.10;98.50
11894;DHT22;6006;49.696;8.662;2022-08-19T08:01:37;24.60;94.10
11894;DHT22;6006;49.696;8.662;2022-08-19T08:04:06;24.40;94.70
11894;DHT22;6006;49.696;8.662;2022-08-19T08:06:59;24.30;93.70
11894;DHT22;6006;49.696;8.662;2022-08-19T08:09:44;23.90;95.40
11894;DHT22;6006;49.696;8.662;2022-08-19T08:12:15;23.90;95.60
11894;DHT22;6006;49.696;8.662;2022-08-19T08:14:45;23.90;96.00
11894;DHT22;6006;49.696;8.662;2022-08-19T08:17:13;23.80;95.40
11894;DHT22;6006;49.696;8.662;2022-08-19T08:19:41;23.60;96.30
11894;DHT22;6006;49.696;8.662;2022-08-19T08:22:09;23.60;97.30
11894;DHT22;6006;49.696;8.662;2022-08-19T08:25:01;23.90;97.20
11894;DHT22;6006;49.696;8.662;2022-08-19T08:27:29;23.80;96.90
11894;DHT22;6006;49.696;8.662;2022-08-19T08:29:57;23.70;96.40
11894;DHT22;6006;49.696;8.662;2022-08-19T08:32:24;24.10;94.40
11894;DHT22;6006;49.696;8.662;2022-08-19T08:34:52;24.50;94.90
11894;DHT22;6006;49.696;8.662;2022-08-19T08:37:19;24.90;93.20
11894;DHT22;6006;49.696;8.662;2022-08-19T08:39:47;25.00;93.10
11894;DHT22;6006;49.696;8.662;2022-08-19T08:42:20;24.70;92.90
11894;DHT22;6006;49.696;8.662;2022-08-19T08:44:58;25.00;89.30
11894;DHT22;6006;49.696;8.662;2022-08-19T08:47:30;25.20;89.50
11894;DHT22;6006;49.696;8.662;2022-08-19T08:50:04;25.50;88.40
11894;DHT22;6006;49.696;8.662;2022-08-19T08:52:34;25.40;85.90
11894;DHT22;6006;49.696;8.662;2022-08-19T08:55:07;24.70;87.00
11894;DHT22;6006;49.696;8.662;2022-08-19T08:57:38;24.90;88.90
11894;DHT22;6006;49.696;8.662;2022-08-19T09:00:10;25.30;87.80
11894;DHT22;6006;49.696;8.662;2022-08-19T09:02:38;25.80;82.90
11894;DHT22;6006;49.696;8.662;2022-08-19T09:05:06;25.40;84.90
11894;DHT22;6006;49.696;8.662;2022-08-19T09:07:43;25.90;83.00
11894;DHT22;6006;49.696;8.662;2022-08-19T09:10:21;26.30;82.50
11894;DHT22;6006;49.696;8.662;2022-08-19T09:12:55;26.70;82.80
11894;DHT22;6006;49.696;8.662;2022-08-19T09:15:30;27.00;76.90
11894;DHT22;6006;49.696;8.662;2022-08-19T09:18:00;27.90;72.00
11894;DHT22;6006;49.696;8.662;2022-08-19T09:20:29;27.80;70.50
11894;DHT22;6006;49.696;8.662;2022-08-19T09:22:56;28.50;67.40
11894;DHT22;6006;49.696;8.662;2022-08-19T09:25:24;29.00;64.30
11894;DHT22;6006;49.696;8.662;2022-08-19T09:27:52;27.90;63.70
11894;DHT22;6006;49.696;8.662;2022-08-19T09:30:24;28.40;64.30
11894;DHT22;6006;49.696;8.662;2022-08-19T09:32:54;28.30;60.00
11894;DHT22;6006;49.696;8.662;2022-08-19T09:35:22;28.00;62.40
11894;DHT22;6006;49.696;8.662;2022-08-19T09:37:50;28.20;61.20
11894;DHT22;6006;49.696;8.662;2022-08-19T09:40:18;28.50;61.90
11894;DHT22;6006;49.696;8.662;2022-08-19T09:42:46;28.00;60.00
11894;DHT22;6006;49.696;8.662;2022-08-19T09:45:14;27.70;62.90
11894;DHT22;6006;49.696;8.662;2022-08-19T09:47:41;27.50;62.70
11894;DHT22;6006;49.696;8.662;2022-08-19T09:50:11;27.30;60.40
11894;DHT22;6006;49.696;8.662;2022-08-19T09:52:38;27.80;60.20
11894;DHT22;6006;49.696;8.662;2022-08-19T09:55:09;27.20;61.00
11894;DHT22;6006;49.696;8.662;2022-08-19T09:57:36;27.10;63.50
11894;DHT22;6006;49.696;8.662;2022-08-19T10:00:06;27.20;62.40
11894;DHT22;6006;49.696;8.662;2022-08-19T10:02:33;27.20;64.20
11894;DHT22;6006;49.696;8.662;2022-08-19T10:05:01;27.90;62.00
11894;DHT22;6006;49.696;8.662;2022-08-19T10:07:46;28.40;58.90
11894;DHT22;6006;49.696;8.662;2022-08-19T10:10:13;28.40;56.20
11894;DHT22;6006;49.696;8.662;2022-08-19T10:12:40;28.70;54.90
11894;DHT22;6006;49.696;8.662;2022-08-19T10:15:10;29.10;53.50
11894;DHT22;6006;49.696;8.662;2022-08-19T10:17:37;29.30;52.90
11894;DHT22;6006;49.696;8.662;2022-08-19T10:20:05;29.50;50.40
11894;DHT22;6006;49.696;8.662;2022-08-19T10:22:32;29.80;46.40
11894;DHT22;6006;49.696;8.662;2022-08-19T10:25:03;28.90;47.90
11894;DHT22;6006;49.696;8.662;2022-08-19T10:27:30;27.70;51.90
11894;DHT22;6006;49.696;8.662;2022-08-19T10:29:58;27.70;56.40
11894;DHT22;6006;49.696;8.662;2022-08-19T10:32:25;27.70;54.30
11894;DHT22;6006;49.696;8.662;2022-08-19T10:34:51;26.90;57.10
11894;DHT22;6006;49.696;8.662;2022-08-19T10:37:19;27.30;57.50
11894;DHT22;6006;49.696;8.662;2022-08-19T10:39:46;28.40;53.40
11894;DHT22;6006;49.696;8.662;2022-08-19T10:42:15;28.80;52.30
11894;DHT22;6006;49.696;8.662;2022-08-19T10:44:44;28.60;50.90
11894;DHT22;6006;49.696;8.662;2022-08-19T10:47:12;28.30;53.00
11894;DHT22;6006;49.696;8.662;2022-08-19T10:49:38;28.10;52.30
11894;DHT22;6006;49.696;8.662;2022-08-19T10:52:19;28.20;52.90
11894;DHT22;6006;49.696;8.662;2022-08-19T10:55:03;27.80;53.30
11894;DHT22;6006;49.696;8.662;2022-08-19T10:57:49;27.60;55.90
11894;DHT22;6006;49.696;8.662;2022-08-19T11:00:18;27.30;54.00
11894;DHT22;6006;49.696;8.662;2022-08-19T11:02:45;27.00;57.30
11894;DHT22;6006;49.696;8.662;2022-08-19T11:05:12;27.90;54.10
11894;DHT22;6006;49.696;8.662;2022-08-19T11:07:40;28.80;52.10
11894;DHT22;6006;49.696;8.662;2022-08-19T11:10:12;29.40;48.00
11894;DHT22;6006;49.696;8.662;2022-08-19T11:12:39;29.20;47.70
11894;DHT22;6006;49.696;8.662;2022-08-19T11:15:09;29.40;48.30
11894;DHT22;6006;49.696;8.662;2022-08-19T11:17:37;29.90;45.30
11894;DHT22;6006;49.696;8.662;2022-08-19T11:20:08;29.30;46.10
11894;DHT22;6006;49.696;8.662;2022-08-19T11:22:35;28.40;48.10
11894;DHT22;6006;49.696;8.662;2022-08-19T11:25:03;28.90;46.60
11894;DHT22;6006;49.696;8.662;2022-08-19T11:27:30;29.10;47.30
11894;DHT22;6006;49.696;8.662;2022-08-19T11:29:57;29.10;45.30
11894;DHT22;6006;49.696;8.662;2022-08-19T11:32:25;29.20;44.20
11894;DHT22;6006;49.696;8.662;2022-08-19T11:34:52;29.50;43.80
11894;DHT22;6006;49.696;8.662;2022-08-19T11:37:19;30.40;42.90
11894;DHT22;6006;49.696;8.662;2022-08-19T11:39:46;30.30;39.30
11894;DHT22;6006;49.696;8.662;2022-08-19T11:42:13;31.10;37.60
11894;DHT22;6006;49.696;8.662;2022-08-19T11:44:58;30.80;33.70
11894;DHT22;6006;49.696;8.662;2022-08-19T11:47:26;31.00;30.40
11894;DHT22;6006;49.696;8.662;2022-08-19T11:49:53;30.90;34.20
11894;DHT22;6006;49.696;8.662;2022-08-19T11:52:20;31.40;28.70
11894;DHT22;6006;49.696;8.662;2022-08-19T11:54:47;30.00;30.70
11894;DHT22;6006;49.696;8.662;2022-08-19T11:57:15;30.50;31.40
11894;DHT22;6006;49.696;8.662;2022-08-19T11:59:48;30.10;29.00
11894;DHT22;6006;49.696;8.662;2022-08-19T12:02:15;30.30;27.30
11894;DHT22;6006;49.696;8.662;2022-08-19T12:04:44;30.60;30.80
11894;DHT22;6006;49.696;8.662;2022-08-19T12:07:11;31.10;24.30
11894;DHT22;6006;49.696;8.662;2022-08-19T12:09:38;30.30;25.40
11894;DHT22;6006;49.696;8.662;2022-08-19T12:12:06;29.90;27.10
11894;DHT22;6006;49.696;8.662;2022-08-19T12:14:33;30.10;27.40
11894;DHT22;6006;49.696;8.662;2022-08-19T12:17:00;30.70;23.20
11894;DHT22;6006;49.696;8.662;2022-08-19T12:19:30;31.00;23.10
11894;DHT22;6006;49.696;8.662;2022-08-19T12:22:00;30.80;23.00
11894;DHT22;6006;49.696;8.662;2022-08-19T12:24:30;30.20;21.80
11894;DHT22;6006;49.696;8.662;2022-08-19T12:26:58;30.20;23.60
11894;DHT22;6006;49.696;8.662;2022-08-19T12:29:27;30.30;24.90
11894;DHT22;6006;49.696;8.662;2022-08-19T12:31:55;30.30;23.50
11894;DHT22;6006;49.696;8.662;2022-08-19T12:34:27;30.30;24.60
11894;DHT22;6006;49.696;8.662;2022-08-19T12:36:56;31.50;23.10
11894;DHT22;6006;49.696;8.662;2022-08-19T12:39:25;32.60;18.90
11894;DHT22;6006;49.696;8.662;2022-08-19T12:41:52;32.20;18.80
11894;DHT22;6006;49.696;8.662;2022-08-19T12:44:19;32.50;18.50
11894;DHT22;6006;49.696;8.662;2022-08-19T12:46:47;32.30;16.20
11894;DHT22;6006;49.696;8.662;2022-08-19T12:49:14;32.00;17.80
11894;DHT22;6006;49.696;8.662;2022-08-19T12:51:42;32.00;17.70
11894;DHT22;6006;49.696;8.662;2022-08-19T12:54:09;31.50;18.50
11894;DHT22;6006;49.696;8.662;2022-08-19T12:56:37;31.50;20.40
11894;DHT22;6006;49.696;8.662;2022-08-19T12:59:04;31.10;17.40
11894;DHT22;6006;49.696;8.662;2022-08-19T13:01:33;31.40;22.30
11894;DHT22;6006;49.696;8.662;2022-08-19T13:04:00;31.80;15.20
11894;DHT22;6006;49.696;8.662;2022-08-19T13:06:27;32.20;17.70
11894;DHT22;6006;49.696;8.662;2022-08-19T13:08:54;31.80;13.70
11894;DHT22;6006;49.696;8.662;2022-08-19T13:11:22;32.30;15.40
11894;DHT22;6006;49.696;8.662;2022-08-19T13:13:52;32.10;14.50
11894;DHT22;6006;49.696;8.662;2022-08-19T13:16:21;31.90;14.10
11894;DHT22;6006;49.696;8.662;2022-08-19T13:18:48;32.20;12.80
11894;DHT22;6006;49.696;8.662;2022-08-19T13:21:18;32.10;11.70
11894;DHT22;6006;49.696;8.662;2022-08-19T13:23:46;32.30;11.50
11894;DHT22;6006;49.696;8.662;2022-08-19T13:26:14;31.90;11.60
11894;DHT22;6006;49.696;8.662;2022-08-19T13:28:41;30.90;10.70
11894;DHT22;6006;49.696;8.662;2022-08-19T13:31:29;31.20;11.40
11894;DHT22;6006;49.696;8.662;2022-08-19T13:34:14;32.30;9.40
11894;DHT22;6006;49.696;8.662;2022-08-19T13:36:41;31.70;8.00
11894;DHT22;6006;49.696;8.662;2022-08-19T13:39:09;31.60;9.60
11894;DHT22;6006;49.696;8.662;2022-08-19T13:41:37;31.20;8.60
11894;DHT22;6006;49.696;8.662;2022-08-19T13:44:04;31.10;11.00
11894;DHT22;6006;49.696;8.662;2022-08-19T13:46:33;31.10;9.30
11894;DHT22;6006;49.696;8.662;2022-08-19T13:49:00;31.50;8.80
11894;DHT22;6006;49.696;8.662;2022-08-19T13:51:27;31.60;6.90
11894;DHT22;6006;49.696;8.662;2022-08-19T13:53:54;31.80;7.90
11894;DHT22;6006;49.696;8.662;2022-08-19T13:56:23;31.30;5.70
11894;DHT22;6006;49.696;8.662;2022-08-19T13:58:53;30.50;6.40
11894;DHT22;6006;49.696;8.662;2022-08-19T14:01:20;30.10;9.50
11894;DHT22;6006;49.696;8.662;2022-08-19T14:03:49;30.60;9.30
11894;DHT22;6006;49.696;8.662;2022-08-19T14:06:16;30.50;7.00
11894;DHT22;6006;49.696;8.662;2022-08-19T14:08:44;31.50;8.00
11894;DHT22;6006;49.696;8.662;2022-08-19T14:11:11;32.10;7.80
11894;DHT22;6006;49.696;8.662;2022-08-19T14:13:38;31.60;7.30
11894;DHT22;6006;49.696;8.662;2022-08-19T14:16:11;31.00;9.30
11894;DHT22;6006;49.696;8.662;2022-08-19T14:18:38;30.90;9.20
11894;DHT22;6006;49.696;8.662;2022-08-19T14:21:07;31.50;6.70
11894;DHT22;6006;49.696;8.662;2022-08-19T14:23:34;31.30;10.60
11894;DHT22;6006;49.696;8.662;2022-08-19T14:26:06;30.20;7.40
11894;DHT22;6006;49.696;8.662;2022-08-19T14:28:33;29.80;8.60
11894;DHT22;6006;49.696;8.662;2022-08-19T14:31:00;29.80;10.00
11894;DHT22;6006;49.696;8.662;2022-08-19T14:33:27;30.30;10.10
11894;DHT22;6006;49.696;8.662;2022-08-19T14:35:54;30.50;8.10
11894;DHT22;6006;49.696;8.662;2022-08-19T14:38:22;30.30;10.00
11894;DHT22;6006;49.696;8.662;2022-08-19T14:40:49;29.90;9.30
11894;DHT22;6006;49.696;8.662;2022-08-19T14:43:17;29.30;12.00
11894;DHT22;6006;49.696;8.662;2022-08-19T14:45:44;29.50;12.30
11894;DHT22;6006;49.696;8.662;2022-08-19T14:48:11;30.00;9.50
11894;DHT22;6006;49.696;8.662;2022-08-19T14:50:38;30.10;9.50
11894;DHT22;6006;49.696;8.662;2022-08-19T14:53:07;30.50;8.30
11894;DHT22;6006;49.696;8.662;2022-08-19T14:55:35;30.80;7.00
11894;DHT22;6006;49.696;8.662;2022-08-19T14:58:02;31.50;7.90
11894;DHT22;6006;49.696;8.662;2022-08-19T15:00:29;31.30;5.90
11894;DHT22;6006;49.696;8.662;2022-08-19T15:02:56;30.80;8.20
11894;DHT22;6006;49.696;8.662;2022-08-19T15:05:24;30.70;6.90
11894;DHT22;6006;49.696;8.662;2022-08-19T15:07:52;30.50;9.40
11894;DHT22;6006;49.696;8.662;2022-08-19T15:10:22;30.90;8.20
11894;DHT22;6006;49.696;8.662;2022-08-19T15:12:51;30.70;7.00
11894;DHT22;6006;49.696;8.662;2022-08-19T15:15:20;30.90;6.20
11894;DHT22;6006;49.696;8.662;2022-08-19T15:17:48;31.40;4.90
11894;DHT22;6006;49.696;8.662;2022-08-19T15:20:18;31.40;5.00
11894;DHT22;6006;49.696;8.662;2022-08-19T15:22:47;30.90;5.50
11894;DHT22;6006;49.696;8.662;2022-08-19T15:25:15;30.60;6.10
11894;DHT22;6006;49.696;8.662;2022-08-19T15:27:43;30.30;5.30
11894;DHT22;6006;49.696;8.662;2022-08-19T15:30:18;30.50;7.40
11894;DHT22;6006;49.696;8.662;2022-08-19T15:32:46;30.50;6.20
11894;DHT22;6006;49.696;8.662;2022-08-19T15:35:13;30.40;7.40
11894;DHT22;6006;49.696;8.662;2022-08-19T15:37:40;30.40;7.50
11894;DHT22;6006;49.696;8.662;2022-08-19T15:40:08;30.00;6.20
11894;DHT22;6006;49.696;8.662;2022-08-19T15:42:36;30.10;5.60
11894;DHT22;6006;49.696;8.662;2022-08-19T15:45:04;30.20;5.60
11894;DHT22;6006;49.696;8.662;2022-08-19T15:47:34;30.30;5.40
11894;DHT22;6006;49.696;8.662;2022-08-19T15:50:04;29.60;7.60
11894;DHT22;6006;49.696;8.662;2022-08-19T15:52:31;29.30;6.50
11894;DHT22;6006;49.696;8.662;2022-08-19T15:54:58;29.20;8.30
11894;DHT22;6006;49.696;8.662;2022-08-19T15:57:25;29.50;9.70